sensor_id;sensor_type;location;lat;lon;timestamp;P1;durP1;ratioP1;P2;durP2;ratioP2
21639;SDS011;10981;45.462;10.974;2023-04-25T00:01:48;4.90;;;1.83;;
21639;SDS011;10981;45.462;10.974;2023-04-25T00:04:18;2.97;;;2.00;;
21639;SDS011;10981;45.462;10.974;2023-04-25T00:06:49;2.85;;;1.40;;
21639;SDS011;10981;45.462;10.974;2023-04-25T00:09:17;3.13;;;1.30;;
21639;SDS011;10981;45.462;10.974;2023-04-25T00:11:45;1.27;;;1.08;;
21639;SDS011;10981;45.462;10.974;2023-04-25T00:14:13;1.27;;;1.17;;
21639;SDS011;10981;45.462;10.974;2023-04-25T00:16:43;4.30;;;1.20;;
21639;SDS011;10981;45.462;10.974;2023-04-25T00:19:12;1.23;;;1.13;;
21639;SDS011;10981;45.462;10.974;2023-04-25T00:21:40;1.45;;;1.35;;
21639;SDS011;10981;45.462;10.974;2023-04-25T00:24:09;2.47;;;1.50;;
21639;SDS011;10981;45.462;10.974;2023-04-25T00:26:37;1.92;;;1.40;;
21639;SDS011;10981;45.462;10.974;2023-04-25T00:29:05;4.68;;;1.90;;
21639;SDS011;10981;45.462;10.974;2023-04-25T00:31:33;2.90;;;1.80;;
21639;SDS011;10981;45.462;10.974;2023-04-25T00:34:02;3.58;;;1.60;;
21639;SDS011;10981;45.462;10.974;2023-04-25T00:36:30;5.78;;;2.15;;
21639;SDS011;10981;45.462;10.974;2023-04-25T00:38:58;3.22;;;2.22;;
21639;SDS011;10981;45.462;10.974;2023-04-25T00:41:27;1.85;;;1.75;;
21639;SDS011;10981;45.462;10.974;2023-04-25T00:43:57;2.92;;;1.50;;
21639;SDS011;10981;45.462;10.974;2023-04-25T00:46:26;2.63;;;1.67;;
21639;SDS011;10981;45.462;10.974;2023-04-25T00:48:55;1.92;;;1.60;;
21639;SDS011;10981;45.462;10.974;2023-04-25T00:51:23;1.40;;;1.10;;
21639;SDS011;10981;45.462;10.974;2023-04-25T00:53:54;3.25;;;1.20;;
21639;SDS011;10981;45.462;10.974;2023-04-25T00:56:22;9.65;;;1.40;;
21639;SDS011;10981;45.462;10.974;2023-04-25T00:58:52;1.02;;;0.93;;
21639;SDS011;10981;45.462;10.974;2023-04-25T01:01:22;3.08;;;0.80;;
21639;SDS011;10981;45.462;10.974;2023-04-25T01:03:51;1.10;;;0.60;;
21639;SDS011;10981;45.462;10.974;2023-04-25T01:06:23;1.15;;;0.80;;
21639;SDS011;10981;45.462;10.974;2023-04-25T01:08:51;0.80;;;0.80;;
21639;SDS011;10981;45.462;10.974;2023-04-25T01:11:20;1.63;;;0.60;;
21639;SDS011;10981;45.462;10.974;2023-04-25T01:13:49;1.50;;;0.70;;
21639;SDS011;10981;45.462;10.974;2023-04-25T01:16:18;2.25;;;0.88;;
21639;SDS011;10981;45.462;10.974;2023-04-25T01:18:46;0.80;;;0.75;;
21639;SDS011;10981;45.462;10.974;2023-04-25T01:21:16;0.95;;;0.77;;
21639;SDS011;10981;45.462;10.974;2023-04-25T01:23:46;0.90;;;0.77;;
21639;SDS011;10981;45.462;10.974;2023-04-25T01:26:15;0.90;;;0.50;;
21639;SDS011;10981;45.462;10.974;2023-04-25T01:28:44;1.98;;;0.80;;
21639;SDS011;10981;45.462;10.974;2023-04-25T01:31:13;1.13;;;0.88;;
21639;SDS011;10981;45.462;10.974;2023-04-25T01:33:43;1.75;;;0.73;;
21639;SDS011;10981;45.462;10.974;2023-04-25T01:36:12;1.65;;;1.02;;
21639;SDS011;10981;45.462;10.974;2023-04-25T01:38:41;1.88;;;0.73;;
21639;SDS011;10981;45.462;10.974;2023-04-25T01:41:11;0.95;;;0.60;;
21639;SDS011;10981;45.462;10.974;2023-04-25T01:43:39;1.48;;;0.77;;
21639;SDS011;10981;45.462;10.974;2023-04-25T01:46:08;0.70;;;0.70;;
21639;SDS011;10981;45.462;10.974;2023-04-25T01:48:36;4.03;;;0.68;;
21639;SDS011;10981;45.462;10.974;2023-04-25T01:51:04;1.15;;;0.82;;
21639;SDS011;10981;45.462;10.974;2023-04-25T01:53:33;2.00;;;0.60;;
21639;SDS011;10981;45.462;10.974;2023-04-25T01:56:03;0.60;;;0.60;;
21639;SDS011;10981;45.462;10.974;2023-04-25T01:58:34;0.82;;;0.80;;
21639;SDS011;10981;45.462;10.974;2023-04-25T02:01:02;0.55;;;0.55;;
21639;SDS011;10981;45.462;10.974;2023-04-25T02:03:39;0.55;;;0.50;;
21639;SDS011;10981;45.462;10.974;2023-04-25T02:06:14;0.43;;;0.43;;
21639;SDS011;10981;45.462;10.974;2023-04-25T02:08:45;0.40;;;0.40;;
21639;SDS011;10981;45.462;10.974;2023-04-25T02:11:15;0.65;;;0.65;;
21639;SDS011;10981;45.462;10.974;2023-04-25T02:14:06;0.55;;;0.45;;
21639;SDS011;10981;45.462;10.974;2023-04-25T02:16:43;0.85;;;0.50;;
21639;SDS011;10981;45.462;10.974;2023-04-25T02:19:12;0.68;;;0.60;;
21639;SDS011;10981;45.462;10.974;2023-04-25T02:21:40;0.52;;;0.52;;
21639;SDS011;10981;45.462;10.974;2023-04-25T02:24:10;0.50;;;0.40;;
21639;SDS011;10981;45.462;10.974;2023-04-25T02:26:39;0.63;;;0.40;;
21639;SDS011;10981;45.462;10.974;2023-04-25T02:29:09;0.40;;;0.40;;
21639;SDS011;10981;45.462;10.974;2023-04-25T02:31:37;0.93;;;0.45;;
21639;SDS011;10981;45.462;10.974;2023-04-25T02:34:05;0.40;;;0.40;;
21639;SDS011;10981;45.462;10.974;2023-04-25T02:36:36;0.40;;;0.40;;
21639;SDS011;10981;45.462;10.974;2023-04-25T02:39:04;0.38;;;0.38;;
21639;SDS011;10981;45.462;10.974;2023-04-25T02:41:33;0.52;;;0.50;;
21639;SDS011;10981;45.462;10.974;2023-04-25T02:44:02;2.10;;;0.90;;
21639;SDS011;10981;45.462;10.974;2023-04-25T02:46:30;2.35;;;0.75;;
21639;SDS011;10981;45.462;10.974;2023-04-25T02:49:04;1.88;;;0.60;;
21639;SDS011;10981;45.462;10.974;2023-04-25T02:51:34;4.20;;;0.90;;
21639;SDS011;10981;45.462;10.974;2023-04-25T02:54:02;1.80;;;0.60;;
21639;SDS011;10981;45.462;10.974;2023-04-25T02:56:34;2.45;;;0.60;;
21639;SDS011;10981;45.462;10.974;2023-04-25T02:59:13;0.90;;;0.57;;
21639;SDS011;10981;45.462;10.974;2023-04-25T03:01:41;3.95;;;0.70;;
21639;SDS011;10981;45.462;10.974;2023-04-25T03:04:09;0.80;;;0.50;;
21639;SDS011;10981;45.462;10.974;2023-04-25T03:06:38;1.88;;;0.90;;
21639;SDS011;10981;45.462;10.974;2023-04-25T03:09:06;0.52;;;0.52;;
21639;SDS011;10981;45.462;10.974;2023-04-25T03:11:34;1.80;;;0.60;;
21639;SDS011;10981;45.462;10.974;2023-04-25T03:14:04;1.58;;;0.60;;
21639;SDS011;10981;45.462;10.974;2023-04-25T03:16:33;0.73;;;0.73;;
21639;SDS011;10981;45.462;10.974;2023-04-25T03:19:02;2.90;;;0.88;;
21639;SDS011;10981;45.462;10.974;2023-04-25T03:21:32;4.10;;;1.95;;
21639;SDS011;10981;45.462;10.974;2023-04-25T03:24:02;1.15;;;0.75;;
21639;SDS011;10981;45.462;10.974;2023-04-25T03:26:31;0.80;;;0.80;;
21639;SDS011;10981;45.462;10.974;2023-04-25T03:29:00;2.63;;;1.10;;
21639;SDS011;10981;45.462;10.974;2023-04-25T03:31:28;0.90;;;0.90;;
21639;SDS011;10981;45.462;10.974;2023-04-25T03:33:57;0.80;;;0.80;;
21639;SDS011;10981;45.462;10.974;2023-04-25T03:36:26;1.13;;;0.80;;
21639;SDS011;10981;45.462;10.974;2023-04-25T03:38:54;1.55;;;0.85;;
21639;SDS011;10981;45.462;10.974;2023-04-25T03:41:23;1.95;;;1.20;;
21639;SDS011;10981;45.462;10.974;2023-04-25T03:44:00;1.73;;;1.00;;
21639;SDS011;10981;45.462;10.974;2023-04-25T03:46:28;1.20;;;1.10;;
21639;SDS011;10981;45.462;10.974;2023-04-25T03:48:58;1.25;;;1.15;;
21639;SDS011;10981;45.462;10.974;2023-04-25T03:51:39;2.15;;;1.30;;
21639;SDS011;10981;45.462;10.974;2023-04-25T03:54:07;1.92;;;1.13;;
21639;SDS011;10981;45.462;10.974;2023-04-25T03:56:58;1.20;;;1.10;;
21639;SDS011;10981;45.462;10.974;2023-04-25T03:59:29;1.67;;;1.40;;
21639;SDS011;10981;45.462;10.974;2023-04-25T04:01:57;1.52;;;1.42;;
21639;SDS011;10981;45.462;10.974;2023-04-25T04:04:26;3.53;;;1.52;;
21639;SDS011;10981;45.462;10.974;2023-04-25T04:06:54;1.38;;;1.20;;
21639;SDS011;10981;45.462;10.974;2023-04-25T04:09:26;1.10;;;1.00;;
21639;SDS011;10981;45.462;10.974;2023-04-25T04:11:56;2.28;;;1.13;;
21639;SDS011;10981;45.462;10.974;2023-04-25T04:14:24;2.17;;;1.00;;
21639;SDS011;10981;45.462;10.974;2023-04-25T04:16:54;1.77;;;1.27;;
21639;SDS011;10981;45.462;10.974;2023-04-25T04:19:23;1.55;;;0.60;;
21639;SDS011;10981;45.462;10.974;2023-04-25T04:22:03;2.28;;;0.60;;
21639;SDS011;10981;45.462;10.974;2023-04-25T04:24:31;0.65;;;0.65;;
21639;SDS011;10981;45.462;10.974;2023-04-25T04:27:03;0.52;;;0.52;;
21639;SDS011;10981;45.462;10.974;2023-04-25T04:32:52;0.43;;;0.43;;
21639;SDS011;10981;45.462;10.974;2023-04-25T04:35:21;1.60;;;0.50;;
21639;SDS011;10981;45.462;10.974;2023-04-25T04:37:51;1.55;;;0.50;;
21639;SDS011;10981;45.462;10.974;2023-04-25T04:40:21;1.00;;;0.55;;
21639;SDS011;10981;45.462;10.974;2023-04-25T04:43:01;0.57;;;0.57;;
21639;SDS011;10981;45.462;10.974;2023-04-25T04:45:46;0.75;;;0.60;;
21639;SDS011;10981;45.462;10.974;2023-04-25T04:48:35;1.98;;;0.77;;
21639;SDS011;10981;45.462;10.974;2023-04-25T04:51:30;0.38;;;0.38;;
21639;SDS011;10981;45.462;10.974;2023-04-25T04:54:27;2.83;;;0.40;;
21639;SDS011;10981;45.462;10.974;2023-04-25T04:57:18;0.30;;;0.30;;
21639;SDS011;10981;45.462;10.974;2023-04-25T05:00:10;0.68;;;0.40;;
21639;SDS011;10981;45.462;10.974;2023-04-25T05:02:52;0.40;;;0.40;;
21639;SDS011;10981;45.462;10.974;2023-04-25T05:05:44;0.50;;;0.30;;
21639;SDS011;10981;45.462;10.974;2023-04-25T05:08:31;1.70;;;0.50;;
21639;SDS011;10981;45.462;10.974;2023-04-25T05:11:08;9.32;;;1.70;;
21639;SDS011;10981;45.462;10.974;2023-04-25T05:13:49;6.80;;;1.92;;
21639;SDS011;10981;45.462;10.974;2023-04-25T05:16:41;11.70;;;2.78;;
21639;SDS011;10981;45.462;10.974;2023-04-25T05:19:40;9.50;;;3.17;;
21639;SDS011;10981;45.462;10.974;2023-04-25T05:22:33;9.20;;;2.50;;
21639;SDS011;10981;45.462;10.974;2023-04-25T05:25:16;7.15;;;2.00;;
21639;SDS011;10981;45.462;10.974;2023-04-25T05:28:05;8.57;;;1.90;;
21639;SDS011;10981;45.462;10.974;2023-04-25T05:30:47;9.27;;;2.17;;
21639;SDS011;10981;45.462;10.974;2023-04-25T05:33:28;11.65;;;2.42;;
21639;SDS011;10981;45.462;10.974;2023-04-25T05:35:56;7.53;;;1.83;;
21639;SDS011;10981;45.462;10.974;2023-04-25T05:38:25;23.23;;;2.72;;
21639;SDS011;10981;45.462;10.974;2023-04-25T05:41:06;4.20;;;2.10;;
21639;SDS011;10981;45.462;10.974;2023-04-25T05:43:54;5.13;;;1.98;;
21639;SDS011;10981;45.462;10.974;2023-04-25T05:46:28;4.90;;;1.60;;
21639;SDS011;10981;45.462;10.974;2023-04-25T05:49:33;4.32;;;1.60;;
21639;SDS011;10981;45.462;10.974;2023-04-25T05:52:19;5.18;;;1.50;;
21639;SDS011;10981;45.462;10.974;2023-04-25T05:55:01;4.65;;;1.52;;
21639;SDS011;10981;45.462;10.974;2023-04-25T05:57:30;3.45;;;1.27;;
21639;SDS011;10981;45.462;10.974;2023-04-25T05:59:59;2.63;;;1.20;;
21639;SDS011;10981;45.462;10.974;2023-04-25T06:02:40;1.30;;;1.08;;
21639;SDS011;10981;45.462;10.974;2023-04-25T06:05:13;2.25;;;1.00;;
21639;SDS011;10981;45.462;10.974;2023-04-25T06:07:42;2.28;;;1.10;;
21639;SDS011;10981;45.462;10.974;2023-04-25T06:10:10;1.02;;;0.90;;
21639;SDS011;10981;45.462;10.974;2023-04-25T06:12:39;1.38;;;0.90;;
21639;SDS011;10981;45.462;10.974;2023-04-25T06:15:07;0.95;;;0.65;;
21639;SDS011;10981;45.462;10.974;2023-04-25T06:17:54;1.00;;;0.80;;
21639;SDS011;10981;45.462;10.974;2023-04-25T06:20:23;1.77;;;0.80;;
21639;SDS011;10981;45.462;10.974;2023-04-25T06:22:54;1.10;;;1.00;;
21639;SDS011;10981;45.462;10.974;2023-04-25T06:25:45;1.88;;;0.77;;
21639;SDS011;10981;45.462;10.974;2023-04-25T06:28:14;1.08;;;0.70;;
21639;SDS011;10981;45.462;10.974;2023-04-25T06:30:43;2.03;;;0.80;;
21639;SDS011;10981;45.462;10.974;2023-04-25T06:33:16;0.98;;;0.90;;
21639;SDS011;10981;45.462;10.974;2023-04-25T06:35:45;1.00;;;0.80;;
21639;SDS011;10981;45.462;10.974;2023-04-25T06:38:17;2.30;;;1.05;;
21639;SDS011;10981;45.462;10.974;2023-04-25T06:40:48;2.58;;;0.82;;
21639;SDS011;10981;45.462;10.974;2023-04-25T06:43:17;1.63;;;0.70;;
21639;SDS011;10981;45.462;10.974;2023-04-25T06:46:24;3.08;;;1.25;;
21639;SDS011;10981;45.462;10.974;2023-04-25T06:48:54;1.70;;;1.10;;
21639;SDS011;10981;45.462;10.974;2023-04-25T06:51:23;1.05;;;0.80;;
21639;SDS011;10981;45.462;10.974;2023-04-25T06:53:55;1.13;;;0.75;;
21639;SDS011;10981;45.462;10.974;2023-04-25T06:56:37;2.83;;;0.93;;
21639;SDS011;10981;45.462;10.974;2023-04-25T06:59:12;0.80;;;0.80;;
21639;SDS011;10981;45.462;10.974;2023-04-25T07:01:42;3.25;;;1.15;;
21639;SDS011;10981;45.462;10.974;2023-04-25T07:04:15;1.58;;;0.70;;
21639;SDS011;10981;45.462;10.974;2023-04-25T07:06:49;2.20;;;2.03;;
21639;SDS011;10981;45.462;10.974;2023-04-25T07:09:22;1.95;;;1.17;;
21639;SDS011;10981;45.462;10.974;2023-04-25T07:11:51;3.10;;;0.88;;
21639;SDS011;10981;45.462;10.974;2023-04-25T07:14:19;1.02;;;0.80;;
21639;SDS011;10981;45.462;10.974;2023-04-25T07:16:48;1.48;;;0.60;;
21639;SDS011;10981;45.462;10.974;2023-04-25T07:19:17;0.82;;;0.82;;
21639;SDS011;10981;45.462;10.974;2023-04-25T07:21:45;0.82;;;0.82;;
21639;SDS011;10981;45.462;10.974;2023-04-25T07:24:14;1.92;;;1.00;;
21639;SDS011;10981;45.462;10.974;2023-04-25T07:26:45;1.88;;;0.90;;
21639;SDS011;10981;45.462;10.974;2023-04-25T07:29:30;1.42;;;0.82;;
21639;SDS011;10981;45.462;10.974;2023-04-25T07:32:00;3.05;;;0.90;;
21639;SDS011;10981;45.462;10.974;2023-04-25T07:34:28;1.52;;;0.77;;
21639;SDS011;10981;45.462;10.974;2023-04-25T07:36:57;1.38;;;0.88;;
21639;SDS011;10981;45.462;10.974;2023-04-25T07:39:33;0.82;;;0.80;;
21639;SDS011;10981;45.462;10.974;2023-04-25T07:42:02;1.15;;;0.73;;
21639;SDS011;10981;45.462;10.974;2023-04-25T07:44:31;1.70;;;0.80;;
21639;SDS011;10981;45.462;10.974;2023-04-25T07:47:07;1.45;;;0.80;;
21639;SDS011;10981;45.462;10.974;2023-04-25T07:49:36;2.03;;;0.82;;
21639;SDS011;10981;45.462;10.974;2023-04-25T07:52:05;1.67;;;0.90;;
21639;SDS011;10981;45.462;10.974;2023-04-25T07:54:35;1.35;;;0.82;;
21639;SDS011;10981;45.462;10.974;2023-04-25T07:57:12;1.13;;;0.50;;
21639;SDS011;10981;45.462;10.974;2023-04-25T07:59:41;1.25;;;0.77;;
21639;SDS011;10981;45.462;10.974;2023-04-25T08:02:10;0.68;;;0.65;;
21639;SDS011;10981;45.462;10.974;2023-04-25T08:04:39;1.65;;;0.80;;
21639;SDS011;10981;45.462;10.974;2023-04-25T08:07:09;0.98;;;0.60;;
21639;SDS011;10981;45.462;10.974;2023-04-25T08:09:47;0.95;;;0.80;;
21639;SDS011;10981;45.462;10.974;2023-04-25T08:12:23;0.47;;;0.47;;
21639;SDS011;10981;45.462;10.974;2023-04-25T08:14:52;1.05;;;0.65;;
21639;SDS011;10981;45.462;10.974;2023-04-25T08:17:23;0.95;;;0.50;;
21639;SDS011;10981;45.462;10.974;2023-04-25T08:19:51;1.33;;;0.50;;
21639;SDS011;10981;45.462;10.974;2023-04-25T08:22:29;0.68;;;0.63;;
21639;SDS011;10981;45.462;10.974;2023-04-25T08:25:13;1.05;;;0.90;;
21639;SDS011;10981;45.462;10.974;2023-04-25T08:27:42;3.25;;;1.63;;
21639;SDS011;10981;45.462;10.974;2023-04-25T08:30:11;1.25;;;0.70;;
21639;SDS011;10981;45.462;10.974;2023-04-25T08:32:41;0.50;;;0.50;;
21639;SDS011;10981;45.462;10.974;2023-04-25T08:35:30;1.40;;;0.80;;
21639;SDS011;10981;45.462;10.974;2023-04-25T08:38:00;1.17;;;0.80;;
21639;SDS011;10981;45.462;10.974;2023-04-25T08:40:29;2.03;;;0.57;;
21639;SDS011;10981;45.462;10.974;2023-04-25T08:43:09;0.60;;;0.43;;
21639;SDS011;10981;45.462;10.974;2023-04-25T08:45:42;0.77;;;0.50;;
21639;SDS011;10981;45.462;10.974;2023-04-25T08:48:18;0.40;;;0.40;;
21639;SDS011;10981;45.462;10.974;2023-04-25T08:50:49;1.55;;;0.50;;
21639;SDS011;10981;45.462;10.974;2023-04-25T08:53:22;0.60;;;0.60;;
21639;SDS011;10981;45.462;10.974;2023-04-25T08:55:57;2.53;;;1.50;;
21639;SDS011;10981;45.462;10.974;2023-04-25T08:58:28;3.85;;;2.10;;
21639;SDS011;10981;45.462;10.974;2023-04-25T09:00:57;0.60;;;0.60;;
21639;SDS011;10981;45.462;10.974;2023-04-25T09:03:30;1.48;;;0.63;;
21639;SDS011;10981;45.462;10.974;2023-04-25T09:05:59;0.88;;;0.68;;
21639;SDS011;10981;45.462;10.974;2023-04-25T09:08:27;0.65;;;0.47;;
21639;SDS011;10981;45.462;10.974;2023-04-25T09:10:56;1.45;;;0.40;;
21639;SDS011;10981;45.462;10.974;2023-04-25T09:13:25;0.40;;;0.40;;
21639;SDS011;10981;45.462;10.974;2023-04-25T09:16:30;0.50;;;0.50;;
21639;SDS011;10981;45.462;10.974;2023-04-25T09:19:23;1.05;;;0.77;;
21639;SDS011;10981;45.462;10.974;2023-04-25T09:22:15;0.43;;;0.43;;
21639;SDS011;10981;45.462;10.974;2023-04-25T09:27:20;0.40;;;0.40;;
21639;SDS011;10981;45.462;10.974;2023-04-25T09:30:17;0.82;;;0.60;;
21639;SDS011;10981;45.462;10.974;2023-04-25T09:33:08;1.42;;;0.70;;
21639;SDS011;10981;45.462;10.974;2023-04-25T09:35:42;0.50;;;0.50;;
21639;SDS011;10981;45.462;10.974;2023-04-25T09:38:19;0.47;;;0.47;;
21639;SDS011;10981;45.462;10.974;2023-04-25T09:41:01;0.40;;;0.40;;
21639;SDS011;10981;45.462;10.974;2023-04-25T09:43:45;1.90;;;0.88;;
21639;SDS011;10981;45.462;10.974;2023-04-25T09:46:16;2.17;;;0.50;;
21639;SDS011;10981;45.462;10.974;2023-04-25T09:48:50;0.60;;;0.60;;
21639;SDS011;10981;45.462;10.974;2023-04-25T09:51:35;0.57;;;0.50;;
21639;SDS011;10981;45.462;10.974;2023-04-25T09:54:06;0.70;;;0.70;;
21639;SDS011;10981;45.462;10.974;2023-04-25T09:56:45;0.73;;;0.70;;
21639;SDS011;10981;45.462;10.974;2023-04-25T09:59:15;0.52;;;0.52;;
21639;SDS011;10981;45.462;10.974;2023-04-25T10:01:46;1.27;;;0.55;;
21639;SDS011;10981;45.462;10.974;2023-04-25T10:04:25;1.35;;;0.50;;
21639;SDS011;10981;45.462;10.974;2023-04-25T10:07:07;1.35;;;1.15;;
21639;SDS011;10981;45.462;10.974;2023-04-25T10:09:37;0.65;;;0.65;;
21639;SDS011;10981;45.462;10.974;2023-04-25T10:12:07;0.52;;;0.52;;
21639;SDS011;10981;45.462;10.974;2023-04-25T10:14:35;2.10;;;0.85;;
21639;SDS011;10981;45.462;10.974;2023-04-25T10:17:04;0.68;;;0.43;;
21639;SDS011;10981;45.462;10.974;2023-04-25T10:19:33;0.90;;;0.50;;
21639;SDS011;10981;45.462;10.974;2023-04-25T10:22:06;2.30;;;0.80;;
21639;SDS011;10981;45.462;10.974;2023-04-25T10:24:38;1.98;;;0.50;;
21639;SDS011;10981;45.462;10.974;2023-04-25T10:27:07;2.15;;;0.70;;
21639;SDS011;10981;45.462;10.974;2023-04-25T10:29:36;1.63;;;0.63;;
21639;SDS011;10981;45.462;10.974;2023-04-25T10:32:04;0.50;;;0.50;;
21639;SDS011;10981;45.462;10.974;2023-04-25T10:34:40;1.00;;;0.70;;
21639;SDS011;10981;45.462;10.974;2023-04-25T10:37:09;0.85;;;0.70;;
21639;SDS011;10981;45.462;10.974;2023-04-25T10:39:39;1.17;;;0.75;;
21639;SDS011;10981;45.462;10.974;2023-04-25T10:42:08;2.75;;;1.23;;
21639;SDS011;10981;45.462;10.974;2023-04-25T10:44:37;0.60;;;0.60;;
21639;SDS011;10981;45.462;10.974;2023-04-25T10:47:08;0.57;;;0.57;;
21639;SDS011;10981;45.462;10.974;2023-04-25T10:49:38;1.50;;;0.45;;
21639;SDS011;10981;45.462;10.974;2023-04-25T10:52:25;0.70;;;0.55;;
21639;SDS011;10981;45.462;10.974;2023-04-25T10:54:56;0.60;;;0.60;;
21639;SDS011;10981;45.462;10.974;2023-04-25T10:57:41;5.80;;;0.47;;
21639;SDS011;10981;45.462;10.974;2023-04-25T11:00:12;0.43;;;0.40;;
21639;SDS011;10981;45.462;10.974;2023-04-25T11:05:20;0.52;;;0.50;;
21639;SDS011;10981;45.462;10.974;2023-04-25T11:07:49;0.73;;;0.55;;
21639;SDS011;10981;45.462;10.974;2023-04-25T11:10:33;2.00;;;0.70;;
21639;SDS011;10981;45.462;10.974;2023-04-25T11:13:05;1.40;;;0.50;;
21639;SDS011;10981;45.462;10.974;2023-04-25T11:15:33;0.55;;;0.47;;
21639;SDS011;10981;45.462;10.974;2023-04-25T11:18:01;1.05;;;0.82;;
21639;SDS011;10981;45.462;10.974;2023-04-25T11:20:30;1.77;;;0.70;;
21639;SDS011;10981;45.462;10.974;2023-04-25T11:22:59;1.10;;;1.00;;
21639;SDS011;10981;45.462;10.974;2023-04-25T11:25:27;0.63;;;0.63;;
21639;SDS011;10981;45.462;10.974;2023-04-25T11:27:57;0.77;;;0.68;;
21639;SDS011;10981;45.462;10.974;2023-04-25T11:30:27;0.73;;;0.70;;
21639;SDS011;10981;45.462;10.974;2023-04-25T11:32:57;0.70;;;0.70;;
21639;SDS011;10981;45.462;10.974;2023-04-25T11:35:26;1.10;;;0.85;;
21639;SDS011;10981;45.462;10.974;2023-04-25T11:37:54;2.60;;;0.80;;
21639;SDS011;10981;45.462;10.974;2023-04-25T11:40:23;2.25;;;1.00;;
21639;SDS011;10981;45.462;10.974;2023-04-25T11:42:51;0.90;;;0.90;;
21639;SDS011;10981;45.462;10.974;2023-04-25T11:45:21;1.35;;;1.00;;
21639;SDS011;10981;45.462;10.974;2023-04-25T11:47:50;1.63;;;0.80;;
21639;SDS011;10981;45.462;10.974;2023-04-25T11:50:20;2.15;;;0.90;;
21639;SDS011;10981;45.462;10.974;2023-04-25T11:52:48;2.85;;;0.80;;
21639;SDS011;10981;45.462;10.974;2023-04-25T11:55:18;1.23;;;0.90;;
21639;SDS011;10981;45.462;10.974;2023-04-25T11:57:48;1.05;;;0.70;;
21639;SDS011;10981;45.462;10.974;2023-04-25T12:00:20;0.77;;;0.77;;
21639;SDS011;10981;45.462;10.974;2023-04-25T12:02:52;0.80;;;0.80;;
21639;SDS011;10981;45.462;10.974;2023-04-25T12:05:26;1.17;;;0.90;;
21639;SDS011;10981;45.462;10.974;2023-04-25T12:08:12;3.63;;;1.60;;
21639;SDS011;10981;45.462;10.974;2023-04-25T12:10:42;1.17;;;0.80;;
21639;SDS011;10981;45.462;10.974;2023-04-25T12:13:22;1.60;;;1.00;;
21639;SDS011;10981;45.462;10.974;2023-04-25T12:15:54;1.05;;;0.95;;
21639;SDS011;10981;45.462;10.974;2023-04-25T12:18:24;1.23;;;1.00;;
21639;SDS011;10981;45.462;10.974;2023-04-25T12:20:55;1.55;;;0.90;;
21639;SDS011;10981;45.462;10.974;2023-04-25T12:23:26;1.55;;;1.02;;
21639;SDS011;10981;45.462;10.974;2023-04-25T12:25:55;1.30;;;0.80;;
21639;SDS011;10981;45.462;10.974;2023-04-25T12:28:25;0.90;;;0.88;;
21639;SDS011;10981;45.462;10.974;2023-04-25T12:30:59;1.92;;;0.80;;
21639;SDS011;10981;45.462;10.974;2023-04-25T12:36:02;1.23;;;0.80;;
21639;SDS011;10981;45.462;10.974;2023-04-25T12:38:36;1.17;;;0.95;;
21639;SDS011;10981;45.462;10.974;2023-04-25T12:41:06;2.40;;;1.00;;
21639;SDS011;10981;45.462;10.974;2023-04-25T12:43:35;1.15;;;0.77;;
21639;SDS011;10981;45.462;10.974;2023-04-25T12:46:03;4.03;;;1.08;;
21639;SDS011;10981;45.462;10.974;2023-04-25T12:48:32;1.45;;;0.82;;
21639;SDS011;10981;45.462;10.974;2023-04-25T12:51:00;2.78;;;0.98;;
21639;SDS011;10981;45.462;10.974;2023-04-25T12:53:28;3.72;;;0.85;;
21639;SDS011;10981;45.462;10.974;2023-04-25T12:55:59;2.70;;;1.10;;
21639;SDS011;10981;45.462;10.974;2023-04-25T12:58:27;3.22;;;1.02;;
21639;SDS011;10981;45.462;10.974;2023-04-25T13:00:55;2.58;;;1.40;;
21639;SDS011;10981;45.462;10.974;2023-04-25T13:03:24;1.90;;;0.80;;
21639;SDS011;10981;45.462;10.974;2023-04-25T13:05:54;1.20;;;0.90;;
21639;SDS011;10981;45.462;10.974;2023-04-25T13:08:22;1.63;;;0.98;;
21639;SDS011;10981;45.462;10.974;2023-04-25T13:10:51;1.40;;;1.13;;
21639;SDS011;10981;45.462;10.974;2023-04-25T13:13:19;3.17;;;1.00;;
21639;SDS011;10981;45.462;10.974;2023-04-25T13:15:47;1.25;;;1.10;;
21639;SDS011;10981;45.462;10.974;2023-04-25T13:18:16;2.47;;;0.90;;
21639;SDS011;10981;45.462;10.974;2023-04-25T13:20:44;2.88;;;1.25;;
21639;SDS011;10981;45.462;10.974;2023-04-25T13:23:13;1.92;;;1.10;;
21639;SDS011;10981;45.462;10.974;2023-04-25T13:25:41;2.90;;;1.25;;
21639;SDS011;10981;45.462;10.974;2023-04-25T13:28:10;1.10;;;1.10;;
21639;SDS011;10981;45.462;10.974;2023-04-25T13:30:38;2.92;;;1.35;;
21639;SDS011;10981;45.462;10.974;2023-04-25T13:33:07;3.20;;;1.17;;
21639;SDS011;10981;45.462;10.974;2023-04-25T13:35:35;1.35;;;1.15;;
21639;SDS011;10981;45.462;10.974;2023-04-25T13:38:04;3.15;;;1.35;;
21639;SDS011;10981;45.462;10.974;2023-04-25T13:40:32;2.85;;;1.30;;
21639;SDS011;10981;45.462;10.974;2023-04-25T13:43:01;1.75;;;1.08;;
21639;SDS011;10981;45.462;10.974;2023-04-25T13:45:30;4.35;;;1.45;;
21639;SDS011;10981;45.462;10.974;2023-04-25T13:47:59;2.40;;;1.85;;
21639;SDS011;10981;45.462;10.974;2023-04-25T13:50:28;6.07;;;1.30;;
21639;SDS011;10981;45.462;10.974;2023-04-25T13:52:57;2.38;;;1.20;;
21639;SDS011;10981;45.462;10.974;2023-04-25T13:55:25;3.63;;;1.13;;
21639;SDS011;10981;45.462;10.974;2023-04-25T13:57:54;1.95;;;1.00;;
21639;SDS011;10981;45.462;10.974;2023-04-25T14:00:22;2.33;;;1.45;;
21639;SDS011;10981;45.462;10.974;2023-04-25T14:02:50;2.65;;;1.63;;
21639;SDS011;10981;45.462;10.974;2023-04-25T14:05:19;8.20;;;2.53;;
21639;SDS011;10981;45.462;10.974;2023-04-25T14:07:47;4.32;;;2.00;;
21639;SDS011;10981;45.462;10.974;2023-04-25T14:10:15;3.60;;;1.80;;
21639;SDS011;10981;45.462;10.974;2023-04-25T14:12:44;2.42;;;1.15;;
21639;SDS011;10981;45.462;10.974;2023-04-25T14:15:12;1.63;;;1.33;;
21639;SDS011;10981;45.462;10.974;2023-04-25T14:17:41;3.58;;;1.42;;
21639;SDS011;10981;45.462;10.974;2023-04-25T14:20:09;1.95;;;1.42;;
21639;SDS011;10981;45.462;10.974;2023-04-25T14:22:38;4.18;;;1.38;;
21639;SDS011;10981;45.462;10.974;2023-04-25T14:25:10;2.00;;;1.55;;
21639;SDS011;10981;45.462;10.974;2023-04-25T14:27:38;3.65;;;1.73;;
21639;SDS011;10981;45.462;10.974;2023-04-25T14:30:08;2.28;;;1.10;;
21639;SDS011;10981;45.462;10.974;2023-04-25T14:32:38;5.30;;;1.60;;
21639;SDS011;10981;45.462;10.974;2023-04-25T14:35:07;4.13;;;1.55;;
21639;SDS011;10981;45.462;10.974;2023-04-25T14:37:36;3.28;;;1.52;;
21639;SDS011;10981;45.462;10.974;2023-04-25T14:40:04;2.75;;;1.52;;
21639;SDS011;10981;45.462;10.974;2023-04-25T14:42:35;3.60;;;2.17;;
21639;SDS011;10981;45.462;10.974;2023-04-25T14:45:04;2.08;;;1.83;;
21639;SDS011;10981;45.462;10.974;2023-04-25T14:47:34;2.85;;;1.70;;
21639;SDS011;10981;45.462;10.974;2023-04-25T14:50:04;5.43;;;1.88;;
21639;SDS011;10981;45.462;10.974;2023-04-25T14:52:33;2.28;;;1.90;;
21639;SDS011;10981;45.462;10.974;2023-04-25T14:55:02;2.63;;;1.33;;
21639;SDS011;10981;45.462;10.974;2023-04-25T14:57:34;1.35;;;1.25;;
21639;SDS011;10981;45.462;10.974;2023-04-25T15:00:03;2.38;;;1.63;;
21639;SDS011;10981;45.462;10.974;2023-04-25T15:02:34;1.60;;;1.50;;
21639;SDS011;10981;45.462;10.974;2023-04-25T15:05:04;2.00;;;1.50;;
21639;SDS011;10981;45.462;10.974;2023-04-25T15:07:33;2.08;;;1.60;;
21639;SDS011;10981;45.462;10.974;2023-04-25T15:10:02;1.38;;;1.00;;
21639;SDS011;10981;45.462;10.974;2023-04-25T15:12:30;2.95;;;1.42;;
21639;SDS011;10981;45.462;10.974;2023-04-25T15:15:01;2.85;;;1.25;;